Quseir, Egypt
Current Conditions -  °F | °C
As of 7:00 PM on Sunday 21 Dec 2014 (Local Time) from HEMA Reporting Station
Clear Clear  
Wind Chill: 68°   Ceiling: Unl
Heat Index: 68°   Visibility: 6mi
Dew Point: 46°   Wind: 13mph
Humidity: 46%   Direction: 330°NNW
Pressure: 30.06"   Gusts: NA
Location:  26.11°N, 34.28°E
Report Text: HEMA 211700Z 33011KT CAVOK 20/08 Q1018 NOSIG
Loading
Personal Weather Stations






























Interactive Weather Map New forecast layout! Learn more

10-Day Weather Forecast

Advertisements
Track Severe Weather on mobile